sensor_id;sensor_type;location;lat;lon;timestamp;P1;durP1;ratioP1;P2;durP2;ratioP2
7685;SDS011;3885;51.474;-2.576;2022-08-20T00:00:39;7.33;;;4.40;;
7685;SDS011;3885;51.474;-2.576;2022-08-20T00:03:08;8.67;;;5.37;;
7685;SDS011;3885;51.474;-2.576;2022-08-20T00:05:41;7.53;;;3.57;;
7685;SDS011;3885;51.474;-2.576;2022-08-20T00:08:10;4.50;;;4.00;;
7685;SDS011;3885;51.474;-2.576;2022-08-20T00:10:40;13.33;;;6.43;;
7685;SDS011;3885;51.474;-2.576;2022-08-20T00:13:10;15.10;;;3.97;;
7685;SDS011;3885;51.474;-2.576;2022-08-20T00:15:40;5.73;;;3.87;;
7685;SDS011;3885;51.474;-2.576;2022-08-20T00:18:07;9.07;;;3.13;;
7685;SDS011;3885;51.474;-2.576;2022-08-20T00:20:35;10.07;;;4.70;;
7685;SDS011;3885;51.474;-2.576;2022-08-20T00:23:04;9.93;;;4.20;;
7685;SDS011;3885;51.474;-2.576;2022-08-20T00:25:31;15.23;;;5.63;;
7685;SDS011;3885;51.474;-2.576;2022-08-20T00:28:00;11.67;;;4.33;;
7685;SDS011;3885;51.474;-2.576;2022-08-20T00:30:29;9.10;;;4.13;;
7685;SDS011;3885;51.474;-2.576;2022-08-20T00:32:57;8.93;;;3.90;;
7685;SDS011;3885;51.474;-2.576;2022-08-20T00:35:26;13.87;;;5.43;;
7685;SDS011;3885;51.474;-2.576;2022-08-20T00:37:56;15.40;;;5.30;;
7685;SDS011;3885;51.474;-2.576;2022-08-20T00:40:25;8.10;;;2.60;;
7685;SDS011;3885;51.474;-2.576;2022-08-20T00:42:55;6.93;;;1.67;;
7685;SDS011;3885;51.474;-2.576;2022-08-20T00:45:25;4.30;;;1.40;;
7685;SDS011;3885;51.474;-2.576;2022-08-20T00:47:54;6.90;;;2.20;;
7685;SDS011;3885;51.474;-2.576;2022-08-20T00:50:22;10.03;;;2.47;;
7685;SDS011;3885;51.474;-2.576;2022-08-20T00:53:03;5.90;;;3.27;;
7685;SDS011;3885;51.474;-2.576;2022-08-20T00:55:32;5.33;;;2.30;;
7685;SDS011;3885;51.474;-2.576;2022-08-20T00:58:02;12.07;;;1.77;;
7685;SDS011;3885;51.474;-2.576;2022-08-20T01:00:36;7.23;;;1.80;;
7685;SDS011;3885;51.474;-2.576;2022-08-20T01:03:07;13.87;;;2.10;;
7685;SDS011;3885;51.474;-2.576;2022-08-20T01:05:35;7.50;;;1.30;;
7685;SDS011;3885;51.474;-2.576;2022-08-20T01:08:03;6.20;;;1.20;;
7685;SDS011;3885;51.474;-2.576;2022-08-20T01:10:32;3.23;;;2.00;;
7685;SDS011;3885;51.474;-2.576;2022-08-20T01:13:03;10.70;;;1.73;;
7685;SDS011;3885;51.474;-2.576;2022-08-20T01:15:36;2.57;;;1.40;;
7685;SDS011;3885;51.474;-2.576;2022-08-20T01:18:06;10.03;;;1.50;;
7685;SDS011;3885;51.474;-2.576;2022-08-20T01:20:38;7.97;;;2.10;;
7685;SDS011;3885;51.474;-2.576;2022-08-20T01:23:10;6.43;;;1.37;;
7685;SDS011;3885;51.474;-2.576;2022-08-20T01:25:59;5.80;;;1.77;;
7685;SDS011;3885;51.474;-2.576;2022-08-20T01:28:32;5.27;;;1.30;;
7685;SDS011;3885;51.474;-2.576;2022-08-20T01:31:03;4.60;;;1.40;;
7685;SDS011;3885;51.474;-2.576;2022-08-20T01:33:31;10.47;;;1.93;;
7685;SDS011;3885;51.474;-2.576;2022-08-20T01:35:58;8.73;;;1.70;;
7685;SDS011;3885;51.474;-2.576;2022-08-20T01:38:25;3.30;;;1.27;;
7685;SDS011;3885;51.474;-2.576;2022-08-20T01:41:03;9.70;;;1.20;;
7685;SDS011;3885;51.474;-2.576;2022-08-20T01:43:41;3.57;;;1.03;;
7685;SDS011;3885;51.474;-2.576;2022-08-20T01:46:10;3.73;;;1.23;;
7685;SDS011;3885;51.474;-2.576;2022-08-20T01:48:38;4.50;;;1.40;;
7685;SDS011;3885;51.474;-2.576;2022-08-20T01:51:08;4.67;;;1.80;;
7685;SDS011;3885;51.474;-2.576;2022-08-20T01:53:38;6.87;;;1.13;;
7685;SDS011;3885;51.474;-2.576;2022-08-20T01:56:10;0.87;;;0.87;;
7685;SDS011;3885;51.474;-2.576;2022-08-20T01:58:41;5.33;;;1.13;;
7685;SDS011;3885;51.474;-2.576;2022-08-20T02:01:17;3.93;;;1.20;;
7685;SDS011;3885;51.474;-2.576;2022-08-20T02:03:47;4.53;;;1.50;;
7685;SDS011;3885;51.474;-2.576;2022-08-20T02:06:15;1.90;;;1.07;;
7685;SDS011;3885;51.474;-2.576;2022-08-20T02:08:42;5.43;;;1.77;;
7685;SDS011;3885;51.474;-2.576;2022-08-20T02:11:10;9.70;;;1.43;;
7685;SDS011;3885;51.474;-2.576;2022-08-20T02:13:38;7.43;;;1.20;;
7685;SDS011;3885;51.474;-2.576;2022-08-20T02:16:05;2.77;;;1.63;;
7685;SDS011;3885;51.474;-2.576;2022-08-20T02:18:33;8.80;;;1.37;;
7685;SDS011;3885;51.474;-2.576;2022-08-20T02:21:00;3.50;;;1.50;;
7685;SDS011;3885;51.474;-2.576;2022-08-20T02:23:27;4.63;;;1.33;;
7685;SDS011;3885;51.474;-2.576;2022-08-20T02:25:55;3.90;;;1.30;;
7685;SDS011;3885;51.474;-2.576;2022-08-20T02:28:24;23.30;;;1.97;;
7685;SDS011;3885;51.474;-2.576;2022-08-20T02:30:52;4.83;;;1.50;;
7685;SDS011;3885;51.474;-2.576;2022-08-20T02:33:20;7.37;;;1.83;;
7685;SDS011;3885;51.474;-2.576;2022-08-20T02:35:48;2.83;;;1.10;;
7685;SDS011;3885;51.474;-2.576;2022-08-20T02:38:16;4.10;;;2.80;;
7685;SDS011;3885;51.474;-2.576;2022-08-20T02:40:44;1.97;;;1.73;;
7685;SDS011;3885;51.474;-2.576;2022-08-20T02:43:13;8.97;;;2.70;;
7685;SDS011;3885;51.474;-2.576;2022-08-20T02:45:43;13.07;;;2.50;;
7685;SDS011;3885;51.474;-2.576;2022-08-20T02:48:11;5.13;;;2.17;;
7685;SDS011;3885;51.474;-2.576;2022-08-20T02:50:45;2.90;;;1.70;;
7685;SDS011;3885;51.474;-2.576;2022-08-20T02:53:14;3.50;;;1.83;;
7685;SDS011;3885;51.474;-2.576;2022-08-20T02:55:42;3.30;;;1.57;;
7685;SDS011;3885;51.474;-2.576;2022-08-20T02:58:08;9.23;;;2.70;;
7685;SDS011;3885;51.474;-2.576;2022-08-20T03:00:36;7.13;;;2.50;;
7685;SDS011;3885;51.474;-2.576;2022-08-20T03:03:04;3.13;;;2.80;;
7685;SDS011;3885;51.474;-2.576;2022-08-20T03:05:32;6.57;;;2.83;;
7685;SDS011;3885;51.474;-2.576;2022-08-20T03:07:59;4.00;;;3.20;;
7685;SDS011;3885;51.474;-2.576;2022-08-20T03:10:27;4.50;;;3.17;;
7685;SDS011;3885;51.474;-2.576;2022-08-20T03:12:56;11.23;;;3.83;;
7685;SDS011;3885;51.474;-2.576;2022-08-20T03:15:23;8.93;;;4.40;;
7685;SDS011;3885;51.474;-2.576;2022-08-20T03:17:50;5.07;;;2.60;;
7685;SDS011;3885;51.474;-2.576;2022-08-20T03:20:19;5.30;;;2.77;;
7685;SDS011;3885;51.474;-2.576;2022-08-20T03:22:47;4.87;;;2.87;;
7685;SDS011;3885;51.474;-2.576;2022-08-20T03:25:14;3.20;;;2.50;;
7685;SDS011;3885;51.474;-2.576;2022-08-20T03:27:41;8.03;;;1.47;;
7685;SDS011;3885;51.474;-2.576;2022-08-20T03:30:10;3.20;;;1.30;;
7685;SDS011;3885;51.474;-2.576;2022-08-20T03:32:39;1.83;;;1.73;;
7685;SDS011;3885;51.474;-2.576;2022-08-20T03:35:07;5.00;;;1.53;;
7685;SDS011;3885;51.474;-2.576;2022-08-20T03:37:37;8.37;;;1.80;;
7685;SDS011;3885;51.474;-2.576;2022-08-20T03:40:06;6.87;;;1.50;;
7685;SDS011;3885;51.474;-2.576;2022-08-20T03:42:37;11.27;;;1.70;;
7685;SDS011;3885;51.474;-2.576;2022-08-20T03:45:05;2.80;;;1.50;;
7685;SDS011;3885;51.474;-2.576;2022-08-20T03:47:33;4.17;;;2.00;;
7685;SDS011;3885;51.474;-2.576;2022-08-20T03:50:00;6.53;;;1.50;;
7685;SDS011;3885;51.474;-2.576;2022-08-20T03:52:30;3.90;;;1.70;;
7685;SDS011;3885;51.474;-2.576;2022-08-20T03:54:58;4.23;;;1.23;;
7685;SDS011;3885;51.474;-2.576;2022-08-20T03:57:25;5.77;;;1.43;;
7685;SDS011;3885;51.474;-2.576;2022-08-20T03:59:52;4.03;;;1.87;;
7685;SDS011;3885;51.474;-2.576;2022-08-20T04:02:20;4.70;;;1.70;;
7685;SDS011;3885;51.474;-2.576;2022-08-20T04:04:47;7.40;;;1.60;;
7685;SDS011;3885;51.474;-2.576;2022-08-20T04:07:15;11.53;;;1.43;;
7685;SDS011;3885;51.474;-2.576;2022-08-20T04:09:49;12.53;;;1.60;;
7685;SDS011;3885;51.474;-2.576;2022-08-20T04:12:18;4.43;;;1.63;;
7685;SDS011;3885;51.474;-2.576;2022-08-20T04:14:45;6.00;;;1.40;;
7685;SDS011;3885;51.474;-2.576;2022-08-20T04:17:12;3.17;;;1.40;;
7685;SDS011;3885;51.474;-2.576;2022-08-20T04:19:39;11.10;;;1.57;;
7685;SDS011;3885;51.474;-2.576;2022-08-20T04:22:06;6.23;;;1.43;;
7685;SDS011;3885;51.474;-2.576;2022-08-20T04:24:33;11.23;;;1.67;;
7685;SDS011;3885;51.474;-2.576;2022-08-20T04:27:01;6.10;;;1.70;;
7685;SDS011;3885;51.474;-2.576;2022-08-20T04:29:31;6.63;;;1.57;;
7685;SDS011;3885;51.474;-2.576;2022-08-20T04:31:58;4.47;;;1.60;;
7685;SDS011;3885;51.474;-2.576;2022-08-20T04:34:26;5.53;;;1.50;;
7685;SDS011;3885;51.474;-2.576;2022-08-20T04:36:54;3.10;;;1.47;;
7685;SDS011;3885;51.474;-2.576;2022-08-20T04:39:21;12.73;;;1.53;;
7685;SDS011;3885;51.474;-2.576;2022-08-20T04:41:48;1.90;;;1.20;;
7685;SDS011;3885;51.474;-2.576;2022-08-20T04:44:14;2.63;;;1.23;;
7685;SDS011;3885;51.474;-2.576;2022-08-20T04:46:42;7.97;;;1.23;;
7685;SDS011;3885;51.474;-2.576;2022-08-20T04:49:09;4.77;;;1.40;;
7685;SDS011;3885;51.474;-2.576;2022-08-20T04:51:36;4.37;;;1.90;;
7685;SDS011;3885;51.474;-2.576;2022-08-20T04:54:03;6.33;;;1.37;;
7685;SDS011;3885;51.474;-2.576;2022-08-20T04:56:31;6.23;;;1.53;;
7685;SDS011;3885;51.474;-2.576;2022-08-20T04:59:03;10.30;;;1.23;;
7685;SDS011;3885;51.474;-2.576;2022-08-20T05:01:31;2.10;;;1.00;;
7685;SDS011;3885;51.474;-2.576;2022-08-20T05:03:59;3.30;;;1.40;;
7685;SDS011;3885;51.474;-2.576;2022-08-20T05:06:28;3.27;;;1.07;;
7685;SDS011;3885;51.474;-2.576;2022-08-20T05:08:56;6.43;;;1.50;;
7685;SDS011;3885;51.474;-2.576;2022-08-20T05:11:25;4.57;;;1.33;;
7685;SDS011;3885;51.474;-2.576;2022-08-20T05:13:52;11.40;;;1.80;;
7685;SDS011;3885;51.474;-2.576;2022-08-20T05:16:19;2.80;;;1.30;;
7685;SDS011;3885;51.474;-2.576;2022-08-20T05:18:48;4.60;;;1.30;;
7685;SDS011;3885;51.474;-2.576;2022-08-20T05:21:17;3.10;;;1.10;;
7685;SDS011;3885;51.474;-2.576;2022-08-20T05:23:44;9.53;;;1.70;;
7685;SDS011;3885;51.474;-2.576;2022-08-20T05:26:11;5.27;;;2.03;;
7685;SDS011;3885;51.474;-2.576;2022-08-20T05:28:39;3.90;;;1.27;;
7685;SDS011;3885;51.474;-2.576;2022-08-20T05:31:06;20.23;;;2.50;;
7685;SDS011;3885;51.474;-2.576;2022-08-20T05:33:35;8.67;;;1.33;;
7685;SDS011;3885;51.474;-2.576;2022-08-20T05:36:04;5.83;;;1.50;;
7685;SDS011;3885;51.474;-2.576;2022-08-20T05:38:33;5.73;;;1.07;;
7685;SDS011;3885;51.474;-2.576;2022-08-20T05:41:02;9.90;;;1.53;;
7685;SDS011;3885;51.474;-2.576;2022-08-20T05:43:29;2.70;;;1.60;;
7685;SDS011;3885;51.474;-2.576;2022-08-20T05:45:57;2.67;;;1.27;;
7685;SDS011;3885;51.474;-2.576;2022-08-20T05:48:25;3.33;;;1.30;;
7685;SDS011;3885;51.474;-2.576;2022-08-20T05:50:53;8.30;;;1.53;;
7685;SDS011;3885;51.474;-2.576;2022-08-20T05:53:21;7.47;;;1.80;;
7685;SDS011;3885;51.474;-2.576;2022-08-20T05:55:51;9.23;;;1.77;;
7685;SDS011;3885;51.474;-2.576;2022-08-20T05:58:19;4.33;;;1.20;;
7685;SDS011;3885;51.474;-2.576;2022-08-20T06:00:49;3.23;;;1.23;;
7685;SDS011;3885;51.474;-2.576;2022-08-20T06:03:17;8.00;;;1.33;;
7685;SDS011;3885;51.474;-2.576;2022-08-20T06:06:02;18.47;;;1.50;;
7685;SDS011;3885;51.474;-2.576;2022-08-20T06:08:30;6.93;;;1.90;;
7685;SDS011;3885;51.474;-2.576;2022-08-20T06:10:59;3.20;;;1.40;;
7685;SDS011;3885;51.474;-2.576;2022-08-20T06:13:25;3.17;;;1.50;;
7685;SDS011;3885;51.474;-2.576;2022-08-20T06:15:53;3.27;;;1.07;;
7685;SDS011;3885;51.474;-2.576;2022-08-20T06:18:20;5.57;;;1.10;;
7685;SDS011;3885;51.474;-2.576;2022-08-20T06:20:48;3.43;;;1.30;;
7685;SDS011;3885;51.474;-2.576;2022-08-20T06:23:15;5.70;;;1.37;;
7685;SDS011;3885;51.474;-2.576;2022-08-20T06:25:43;11.93;;;1.70;;
7685;SDS011;3885;51.474;-2.576;2022-08-20T06:28:13;8.17;;;1.40;;
7685;SDS011;3885;51.474;-2.576;2022-08-20T06:30:40;15.87;;;1.77;;
7685;SDS011;3885;51.474;-2.576;2022-08-20T06:33:06;6.30;;;1.20;;
7685;SDS011;3885;51.474;-2.576;2022-08-20T06:35:34;21.90;;;2.57;;
7685;SDS011;3885;51.474;-2.576;2022-08-20T06:38:02;1.67;;;1.03;;
7685;SDS011;3885;51.474;-2.576;2022-08-20T06:40:29;7.80;;;1.53;;
7685;SDS011;3885;51.474;-2.576;2022-08-20T06:42:58;11.60;;;1.60;;
7685;SDS011;3885;51.474;-2.576;2022-08-20T06:45:28;10.70;;;1.30;;
7685;SDS011;3885;51.474;-2.576;2022-08-20T06:47:57;3.53;;;1.53;;
7685;SDS011;3885;51.474;-2.576;2022-08-20T06:50:27;14.40;;;1.50;;
7685;SDS011;3885;51.474;-2.576;2022-08-20T06:52:55;8.70;;;1.70;;
7685;SDS011;3885;51.474;-2.576;2022-08-20T06:55:23;16.50;;;1.87;;
7685;SDS011;3885;51.474;-2.576;2022-08-20T06:57:57;4.80;;;1.63;;
7685;SDS011;3885;51.474;-2.576;2022-08-20T07:00:24;5.43;;;1.50;;
7685;SDS011;3885;51.474;-2.576;2022-08-20T07:02:55;3.37;;;1.37;;
7685;SDS011;3885;51.474;-2.576;2022-08-20T07:05:24;3.33;;;1.20;;
7685;SDS011;3885;51.474;-2.576;2022-08-20T07:07:51;3.23;;;1.43;;
7685;SDS011;3885;51.474;-2.576;2022-08-20T07:10:18;5.97;;;1.60;;
7685;SDS011;3885;51.474;-2.576;2022-08-20T07:12:46;6.90;;;1.67;;
7685;SDS011;3885;51.474;-2.576;2022-08-20T07:15:14;3.23;;;1.43;;
7685;SDS011;3885;51.474;-2.576;2022-08-20T07:17:48;4.13;;;1.50;;
7685;SDS011;3885;51.474;-2.576;2022-08-20T07:20:15;3.20;;;1.33;;
7685;SDS011;3885;51.474;-2.576;2022-08-20T07:22:42;8.73;;;1.67;;
7685;SDS011;3885;51.474;-2.576;2022-08-20T07:25:10;4.20;;;1.50;;
7685;SDS011;3885;51.474;-2.576;2022-08-20T07:27:40;3.37;;;0.80;;
7685;SDS011;3885;51.474;-2.576;2022-08-20T07:30:08;17.50;;;1.60;;
7685;SDS011;3885;51.474;-2.576;2022-08-20T07:32:55;7.73;;;1.90;;
7685;SDS011;3885;51.474;-2.576;2022-08-20T07:35:22;6.40;;;1.63;;
7685;SDS011;3885;51.474;-2.576;2022-08-20T07:37:50;9.63;;;2.90;;
7685;SDS011;3885;51.474;-2.576;2022-08-20T07:40:19;12.87;;;1.63;;
7685;SDS011;3885;51.474;-2.576;2022-08-20T07:42:48;4.43;;;1.20;;
7685;SDS011;3885;51.474;-2.576;2022-08-20T07:45:16;6.53;;;1.30;;
7685;SDS011;3885;51.474;-2.576;2022-08-20T07:47:45;6.17;;;1.27;;
7685;SDS011;3885;51.474;-2.576;2022-08-20T07:50:15;4.37;;;1.43;;
7685;SDS011;3885;51.474;-2.576;2022-08-20T07:52:44;7.37;;;1.80;;
7685;SDS011;3885;51.474;-2.576;2022-08-20T07:55:12;10.33;;;1.57;;
7685;SDS011;3885;51.474;-2.576;2022-08-20T07:57:40;3.67;;;1.30;;
7685;SDS011;3885;51.474;-2.576;2022-08-20T08:00:09;9.67;;;1.37;;
7685;SDS011;3885;51.474;-2.576;2022-08-20T08:02:37;4.07;;;1.47;;
7685;SDS011;3885;51.474;-2.576;2022-08-20T08:05:05;7.20;;;1.63;;
7685;SDS011;3885;51.474;-2.576;2022-08-20T08:07:34;9.47;;;1.40;;
7685;SDS011;3885;51.474;-2.576;2022-08-20T08:10:02;9.17;;;1.50;;
7685;SDS011;3885;51.474;-2.576;2022-08-20T08:12:32;5.20;;;1.57;;
7685;SDS011;3885;51.474;-2.576;2022-08-20T08:15:02;12.63;;;2.17;;
7685;SDS011;3885;51.474;-2.576;2022-08-20T08:17:30;9.03;;;1.70;;
7685;SDS011;3885;51.474;-2.576;2022-08-20T08:19:57;6.77;;;1.50;;
7685;SDS011;3885;51.474;-2.576;2022-08-20T08:22:25;11.97;;;2.20;;
7685;SDS011;3885;51.474;-2.576;2022-08-20T08:24:54;4.37;;;1.33;;
7685;SDS011;3885;51.474;-2.576;2022-08-20T08:27:23;3.17;;;1.60;;
7685;SDS011;3885;51.474;-2.576;2022-08-20T08:29:50;7.33;;;1.57;;
7685;SDS011;3885;51.474;-2.576;2022-08-20T08:32:18;9.00;;;1.40;;
7685;SDS011;3885;51.474;-2.576;2022-08-20T08:34:45;6.87;;;1.30;;
7685;SDS011;3885;51.474;-2.576;2022-08-20T08:37:12;2.73;;;1.40;;
7685;SDS011;3885;51.474;-2.576;2022-08-20T08:39:39;6.73;;;3.27;;
7685;SDS011;3885;51.474;-2.576;2022-08-20T08:42:16;6.30;;;1.97;;
7685;SDS011;3885;51.474;-2.576;2022-08-20T08:44:51;5.40;;;1.40;;
7685;SDS011;3885;51.474;-2.576;2022-08-20T08:47:19;10.13;;;1.67;;
7685;SDS011;3885;51.474;-2.576;2022-08-20T08:49:50;5.80;;;1.63;;
7685;SDS011;3885;51.474;-2.576;2022-08-20T08:52:18;5.50;;;1.93;;
7685;SDS011;3885;51.474;-2.576;2022-08-20T08:54:48;9.03;;;1.93;;
7685;SDS011;3885;51.474;-2.576;2022-08-20T08:57:19;2.47;;;1.33;;
7685;SDS011;3885;51.474;-2.576;2022-08-20T08:59:51;3.67;;;1.47;;
7685;SDS011;3885;51.474;-2.576;2022-08-20T09:02:23;8.07;;;1.50;;
7685;SDS011;3885;51.474;-2.576;2022-08-20T09:04:51;8.63;;;1.60;;
7685;SDS011;3885;51.474;-2.576;2022-08-20T09:07:21;3.63;;;1.43;;
7685;SDS011;3885;51.474;-2.576;2022-08-20T09:09:50;7.27;;;1.70;;
7685;SDS011;3885;51.474;-2.576;2022-08-20T09:12:18;6.43;;;1.30;;
7685;SDS011;3885;51.474;-2.576;2022-08-20T09:14:47;7.70;;;1.20;;
7685;SDS011;3885;51.474;-2.576;2022-08-20T09:17:16;10.97;;;2.60;;
7685;SDS011;3885;51.474;-2.576;2022-08-20T09:19:44;13.70;;;1.40;;
7685;SDS011;3885;51.474;-2.576;2022-08-20T09:22:12;3.57;;;1.73;;
7685;SDS011;3885;51.474;-2.576;2022-08-20T09:24:41;3.13;;;1.20;;
7685;SDS011;3885;51.474;-2.576;2022-08-20T09:27:09;10.60;;;1.53;;
7685;SDS011;3885;51.474;-2.576;2022-08-20T09:29:37;3.20;;;1.30;;
7685;SDS011;3885;51.474;-2.576;2022-08-20T09:32:05;5.60;;;1.20;;
7685;SDS011;3885;51.474;-2.576;2022-08-20T09:34:35;8.03;;;1.90;;
7685;SDS011;3885;51.474;-2.576;2022-08-20T09:37:03;5.80;;;1.30;;
7685;SDS011;3885;51.474;-2.576;2022-08-20T09:39:30;9.57;;;2.03;;
7685;SDS011;3885;51.474;-2.576;2022-08-20T09:42:05;5.90;;;1.43;;
7685;SDS011;3885;51.474;-2.576;2022-08-20T09:44:32;4.10;;;1.53;;
7685;SDS011;3885;51.474;-2.576;2022-08-20T09:47:01;4.10;;;1.57;;
7685;SDS011;3885;51.474;-2.576;2022-08-20T09:49:28;2.93;;;1.80;;
7685;SDS011;3885;51.474;-2.576;2022-08-20T09:51:55;12.00;;;1.53;;
7685;SDS011;3885;51.474;-2.576;2022-08-20T09:54:24;5.10;;;1.70;;
7685;SDS011;3885;51.474;-2.576;2022-08-20T09:56:54;6.07;;;1.20;;
7685;SDS011;3885;51.474;-2.576;2022-08-20T09:59:22;7.30;;;2.23;;
7685;SDS011;3885;51.474;-2.576;2022-08-20T10:01:49;7.87;;;1.40;;
7685;SDS011;3885;51.474;-2.576;2022-08-20T10:04:17;4.87;;;1.30;;
7685;SDS011;3885;51.474;-2.576;2022-08-20T10:06:44;7.10;;;1.50;;
7685;SDS011;3885;51.474;-2.576;2022-08-20T10:09:12;9.27;;;1.43;;
7685;SDS011;3885;51.474;-2.576;2022-08-20T10:11:39;7.70;;;4.20;;
7685;SDS011;3885;51.474;-2.576;2022-08-20T10:14:06;4.87;;;1.77;;
7685;SDS011;3885;51.474;-2.576;2022-08-20T10:16:33;3.23;;;1.70;;
7685;SDS011;3885;51.474;-2.576;2022-08-20T10:19:00;9.37;;;1.50;;
7685;SDS011;3885;51.474;-2.576;2022-08-20T10:21:29;4.83;;;1.57;;
7685;SDS011;3885;51.474;-2.576;2022-08-20T10:23:57;6.50;;;2.17;;
7685;SDS011;3885;51.474;-2.576;2022-08-20T10:26:24;6.30;;;2.10;;
7685;SDS011;3885;51.474;-2.576;2022-08-20T10:28:51;5.20;;;1.33;;
7685;SDS011;3885;51.474;-2.576;2022-08-20T10:31:18;4.13;;;1.63;;
7685;SDS011;3885;51.474;-2.576;2022-08-20T10:33:45;4.63;;;1.50;;
7685;SDS011;3885;51.474;-2.576;2022-08-20T10:36:13;7.67;;;2.30;;
7685;SDS011;3885;51.474;-2.576;2022-08-20T10:38:43;7.53;;;1.93;;
7685;SDS011;3885;51.474;-2.576;2022-08-20T10:41:12;2.77;;;1.17;;
7685;SDS011;3885;51.474;-2.576;2022-08-20T10:43:39;2.30;;;1.20;;
7685;SDS011;3885;51.474;-2.576;2022-08-20T10:46:06;9.43;;;1.70;;
7685;SDS011;3885;51.474;-2.576;2022-08-20T10:48:33;6.30;;;1.67;;
7685;SDS011;3885;51.474;-2.576;2022-08-20T10:51:00;3.57;;;1.23;;
7685;SDS011;3885;51.474;-2.576;2022-08-20T10:53:28;5.40;;;1.50;;
7685;SDS011;3885;51.474;-2.576;2022-08-20T10:55:56;5.10;;;1.50;;
7685;SDS011;3885;51.474;-2.576;2022-08-20T10:58:24;7.20;;;1.43;;
7685;SDS011;3885;51.474;-2.576;2022-08-20T11:00:51;8.33;;;1.73;;
7685;SDS011;3885;51.474;-2.576;2022-08-20T11:03:19;7.23;;;1.60;;
7685;SDS011;3885;51.474;-2.576;2022-08-20T11:05:46;12.70;;;2.10;;
7685;SDS011;3885;51.474;-2.576;2022-08-20T11:08:13;14.40;;;1.73;;
7685;SDS011;3885;51.474;-2.576;2022-08-20T11:10:40;8.43;;;1.30;;
7685;SDS011;3885;51.474;-2.576;2022-08-20T11:13:09;5.03;;;1.53;;
7685;SDS011;3885;51.474;-2.576;2022-08-20T11:15:37;7.07;;;2.23;;
7685;SDS011;3885;51.474;-2.576;2022-08-20T11:18:06;6.40;;;1.43;;
7685;SDS011;3885;51.474;-2.576;2022-08-20T11:20:34;4.97;;;1.27;;
7685;SDS011;3885;51.474;-2.576;2022-08-20T11:23:01;9.57;;;1.70;;
7685;SDS011;3885;51.474;-2.576;2022-08-20T11:25:28;5.40;;;1.83;;
7685;SDS011;3885;51.474;-2.576;2022-08-20T11:27:55;8.00;;;2.10;;
7685;SDS011;3885;51.474;-2.576;2022-08-20T11:30:25;7.43;;;1.60;;
7685;SDS011;3885;51.474;-2.576;2022-08-20T11:32:54;2.10;;;1.13;;
7685;SDS011;3885;51.474;-2.576;2022-08-20T11:35:22;3.60;;;1.23;;
7685;SDS011;3885;51.474;-2.576;2022-08-20T11:37:49;13.93;;;1.80;;
7685;SDS011;3885;51.474;-2.576;2022-08-20T11:40:16;13.83;;;2.20;;
7685;SDS011;3885;51.474;-2.576;2022-08-20T11:42:43;2.20;;;1.13;;
7685;SDS011;3885;51.474;-2.576;2022-08-20T11:45:11;8.13;;;2.17;;
7685;SDS011;3885;51.474;-2.576;2022-08-20T11:47:42;8.17;;;1.37;;
7685;SDS011;3885;51.474;-2.576;2022-08-20T11:50:10;3.00;;;1.20;;
7685;SDS011;3885;51.474;-2.576;2022-08-20T11:52:39;9.03;;;1.90;;
7685;SDS011;3885;51.474;-2.576;2022-08-20T11:55:06;3.30;;;1.60;;
7685;SDS011;3885;51.474;-2.576;2022-08-20T11:57:36;6.87;;;1.40;;
7685;SDS011;3885;51.474;-2.576;2022-08-20T12:00:08;4.73;;;1.27;;
7685;SDS011;3885;51.474;-2.576;2022-08-20T12:02:37;6.23;;;2.00;;
7685;SDS011;3885;51.474;-2.576;2022-08-20T12:05:07;2.90;;;1.00;;
7685;SDS011;3885;51.474;-2.576;2022-08-20T12:07:35;3.07;;;1.40;;
7685;SDS011;3885;51.474;-2.576;2022-08-20T12:10:02;3.30;;;1.90;;
7685;SDS011;3885;51.474;-2.576;2022-08-20T12:12:30;7.43;;;1.43;;
7685;SDS011;3885;51.474;-2.576;2022-08-20T12:14:58;3.90;;;1.43;;
7685;SDS011;3885;51.474;-2.576;2022-08-20T12:17:25;4.10;;;1.20;;
7685;SDS011;3885;51.474;-2.576;2022-08-20T12:19:54;5.63;;;1.30;;
7685;SDS011;3885;51.474;-2.576;2022-08-20T12:22:24;4.33;;;2.27;;
7685;SDS011;3885;51.474;-2.576;2022-08-20T12:24:51;10.93;;;2.53;;
7685;SDS011;3885;51.474;-2.576;2022-08-20T12:27:20;10.17;;;1.53;;
7685;SDS011;3885;51.474;-2.576;2022-08-20T12:29:49;4.00;;;1.50;;
7685;SDS011;3885;51.474;-2.576;2022-08-20T12:32:19;4.60;;;1.53;;
7685;SDS011;3885;51.474;-2.576;2022-08-20T12:34:47;10.33;;;2.00;;
7685;SDS011;3885;51.474;-2.576;2022-08-20T12:37:15;6.63;;;1.37;;
7685;SDS011;3885;51.474;-2.576;2022-08-20T12:39:45;5.60;;;1.70;;
7685;SDS011;3885;51.474;-2.576;2022-08-20T12:42:14;4.10;;;1.60;;
7685;SDS011;3885;51.474;-2.576;2022-08-20T12:44:42;3.87;;;1.70;;
7685;SDS011;3885;51.474;-2.576;2022-08-20T12:47:10;6.77;;;2.13;;
7685;SDS011;3885;51.474;-2.576;2022-08-20T12:49:38;10.47;;;1.57;;
7685;SDS011;3885;51.474;-2.576;2022-08-20T12:52:07;2.67;;;1.13;;
7685;SDS011;3885;51.474;-2.576;2022-08-20T12:54:34;2.17;;;1.30;;
7685;SDS011;3885;51.474;-2.576;2022-08-20T12:57:03;2.93;;;1.50;;
7685;SDS011;3885;51.474;-2.576;2022-08-20T12:59:30;2.00;;;1.50;;
7685;SDS011;3885;51.474;-2.576;2022-08-20T13:01:57;3.23;;;1.63;;
7685;SDS011;3885;51.474;-2.576;2022-08-20T13:04:24;2.90;;;1.50;;
7685;SDS011;3885;51.474;-2.576;2022-08-20T13:06:51;13.33;;;1.60;;
7685;SDS011;3885;51.474;-2.576;2022-08-20T13:09:18;4.23;;;1.20;;
7685;SDS011;3885;51.474;-2.576;2022-08-20T13:11:45;4.57;;;1.60;;
7685;SDS011;3885;51.474;-2.576;2022-08-20T13:14:13;11.27;;;1.67;;
7685;SDS011;3885;51.474;-2.576;2022-08-20T13:16:40;5.43;;;1.70;;
7685;SDS011;3885;51.474;-2.576;2022-08-20T13:19:07;11.63;;;1.93;;
7685;SDS011;3885;51.474;-2.576;2022-08-20T13:21:34;5.80;;;1.20;;
7685;SDS011;3885;51.474;-2.576;2022-08-20T13:24:01;4.83;;;1.50;;
7685;SDS011;3885;51.474;-2.576;2022-08-20T13:26:29;4.43;;;1.47;;
7685;SDS011;3885;51.474;-2.576;2022-08-20T13:28:55;3.90;;;1.13;;
7685;SDS011;3885;51.474;-2.576;2022-08-20T13:31:24;7.67;;;1.40;;
7685;SDS011;3885;51.474;-2.576;2022-08-20T13:33:51;2.30;;;1.47;;
7685;SDS011;3885;51.474;-2.576;2022-08-20T13:36:17;8.37;;;1.57;;
7685;SDS011;3885;51.474;-2.576;2022-08-20T13:38:44;7.37;;;1.57;;
7685;SDS011;3885;51.474;-2.576;2022-08-20T13:41:11;2.80;;;1.67;;
7685;SDS011;3885;51.474;-2.576;2022-08-20T13:43:39;4.10;;;1.30;;
7685;SDS011;3885;51.474;-2.576;2022-08-20T13:46:06;4.00;;;1.20;;
7685;SDS011;3885;51.474;-2.576;2022-08-20T13:48:34;4.50;;;1.83;;
7685;SDS011;3885;51.474;-2.576;2022-08-20T13:51:01;4.67;;;1.70;;
7685;SDS011;3885;51.474;-2.576;2022-08-20T13:53:28;1.80;;;1.37;;
7685;SDS011;3885;51.474;-2.576;2022-08-20T13:55:55;11.07;;;1.60;;
7685;SDS011;3885;51.474;-2.576;2022-08-20T13:58:22;7.80;;;2.40;;
7685;SDS011;3885;51.474;-2.576;2022-08-20T14:00:49;9.63;;;1.60;;
7685;SDS011;3885;51.474;-2.576;2022-08-20T14:03:16;3.17;;;1.13;;
7685;SDS011;3885;51.474;-2.576;2022-08-20T14:05:44;3.67;;;1.40;;
7685;SDS011;3885;51.474;-2.576;2022-08-20T14:08:12;2.10;;;1.30;;
7685;SDS011;3885;51.474;-2.576;2022-08-20T14:10:40;6.73;;;2.13;;
7685;SDS011;3885;51.474;-2.576;2022-08-20T14:13:08;2.70;;;1.30;;
7685;SDS011;3885;51.474;-2.576;2022-08-20T14:15:35;5.50;;;1.77;;
7685;SDS011;3885;51.474;-2.576;2022-08-20T14:18:04;4.57;;;1.73;;
7685;SDS011;3885;51.474;-2.576;2022-08-20T14:20:31;8.63;;;2.03;;
7685;SDS011;3885;51.474;-2.576;2022-08-20T14:23:00;5.17;;;1.70;;
7685;SDS011;3885;51.474;-2.576;2022-08-20T14:25:27;8.70;;;1.90;;
7685;SDS011;3885;51.474;-2.576;2022-08-20T14:27:55;4.40;;;1.83;;
7685;SDS011;3885;51.474;-2.576;2022-08-20T14:30:24;7.13;;;2.07;;
7685;SDS011;3885;51.474;-2.576;2022-08-20T14:32:51;4.87;;;1.87;;
7685;SDS011;3885;51.474;-2.576;2022-08-20T14:35:19;10.20;;;2.33;;
7685;SDS011;3885;51.474;-2.576;2022-08-20T14:37:47;8.10;;;2.40;;
7685;SDS011;3885;51.474;-2.576;2022-08-20T14:40:19;7.20;;;1.87;;
7685;SDS011;3885;51.474;-2.576;2022-08-20T14:42:47;2.50;;;1.40;;
7685;SDS011;3885;51.474;-2.576;2022-08-20T14:45:15;6.63;;;1.37;;
7685;SDS011;3885;51.474;-2.576;2022-08-20T14:47:43;6.50;;;1.43;;
7685;SDS011;3885;51.474;-2.576;2022-08-20T14:50:12;7.57;;;1.63;;
7685;SDS011;3885;51.474;-2.576;2022-08-20T14:52:41;4.80;;;2.17;;
7685;SDS011;3885;51.474;-2.576;2022-08-20T14:55:09;2.40;;;1.67;;
7685;SDS011;3885;51.474;-2.576;2022-08-20T14:57:39;3.90;;;1.50;;
7685;SDS011;3885;51.474;-2.576;2022-08-20T15:00:08;1.63;;;1.43;;
7685;SDS011;3885;51.474;-2.576;2022-08-20T15:02:37;4.07;;;1.37;;
7685;SDS011;3885;51.474;-2.576;2022-08-20T15:05:05;3.00;;;1.10;;
7685;SDS011;3885;51.474;-2.576;2022-08-20T15:07:33;5.00;;;1.67;;